sensor_id;sensor_type;location;lat;lon;timestamp;P1;durP1;ratioP1;P2;durP2;ratioP2
60354;SDS011;46198;51.464;-0.066;2023-06-22T00:00:35;8.32;;;5.18;;
60354;SDS011;46198;51.464;-0.066;2023-06-22T00:03:03;6.05;;;4.72;;
60354;SDS011;46198;51.464;-0.066;2023-06-22T00:05:31;7.78;;;4.65;;
60354;SDS011;46198;51.464;-0.066;2023-06-22T00:08:02;6.90;;;4.60;;
60354;SDS011;46198;51.464;-0.066;2023-06-22T00:10:31;6.65;;;4.97;;
60354;SDS011;46198;51.464;-0.066;2023-06-22T00:13:00;12.70;;;5.45;;
60354;SDS011;46198;51.464;-0.066;2023-06-22T00:15:28;7.18;;;5.18;;
60354;SDS011;46198;51.464;-0.066;2023-06-22T00:17:56;8.90;;;5.47;;
60354;SDS011;46198;51.464;-0.066;2023-06-22T00:20:25;8.75;;;5.00;;
60354;SDS011;46198;51.464;-0.066;2023-06-22T00:22:56;9.07;;;5.55;;
60354;SDS011;46198;51.464;-0.066;2023-06-22T00:25:27;8.70;;;5.47;;
60354;SDS011;46198;51.464;-0.066;2023-06-22T00:27:55;7.15;;;5.45;;
60354;SDS011;46198;51.464;-0.066;2023-06-22T00:30:23;11.00;;;5.20;;
60354;SDS011;46198;51.464;-0.066;2023-06-22T00:32:51;9.95;;;5.22;;
60354;SDS011;46198;51.464;-0.066;2023-06-22T00:35:20;5.78;;;4.68;;
60354;SDS011;46198;51.464;-0.066;2023-06-22T00:37:55;8.63;;;4.90;;
60354;SDS011;46198;51.464;-0.066;2023-06-22T00:40:29;10.68;;;5.53;;
60354;SDS011;46198;51.464;-0.066;2023-06-22T00:42:58;8.35;;;5.00;;
60354;SDS011;46198;51.464;-0.066;2023-06-22T00:45:26;12.65;;;5.13;;
60354;SDS011;46198;51.464;-0.066;2023-06-22T00:47:55;8.50;;;5.68;;
60354;SDS011;46198;51.464;-0.066;2023-06-22T00:50:27;10.48;;;6.07;;
60354;SDS011;46198;51.464;-0.066;2023-06-22T00:53:01;8.05;;;5.75;;
60354;SDS011;46198;51.464;-0.066;2023-06-22T00:55:36;7.35;;;5.65;;
60354;SDS011;46198;51.464;-0.066;2023-06-22T00:58:05;7.00;;;5.22;;
60354;SDS011;46198;51.464;-0.066;2023-06-22T01:00:37;9.95;;;4.93;;
60354;SDS011;46198;51.464;-0.066;2023-06-22T01:03:06;8.88;;;5.47;;
60354;SDS011;46198;51.464;-0.066;2023-06-22T01:05:36;9.02;;;5.30;;
60354;SDS011;46198;51.464;-0.066;2023-06-22T01:08:08;7.35;;;5.25;;
60354;SDS011;46198;51.464;-0.066;2023-06-22T01:10:46;8.68;;;4.72;;
60354;SDS011;46198;51.464;-0.066;2023-06-22T01:13:22;9.90;;;5.25;;
60354;SDS011;46198;51.464;-0.066;2023-06-22T01:15:59;7.75;;;5.55;;
60354;SDS011;46198;51.464;-0.066;2023-06-22T01:18:31;11.02;;;6.25;;
60354;SDS011;46198;51.464;-0.066;2023-06-22T01:21:03;10.50;;;6.50;;
60354;SDS011;46198;51.464;-0.066;2023-06-22T01:23:41;7.68;;;5.35;;
60354;SDS011;46198;51.464;-0.066;2023-06-22T01:26:20;7.85;;;5.50;;
60354;SDS011;46198;51.464;-0.066;2023-06-22T01:28:57;8.45;;;5.47;;
60354;SDS011;46198;51.464;-0.066;2023-06-22T01:31:27;9.27;;;5.07;;
60354;SDS011;46198;51.464;-0.066;2023-06-22T01:33:58;10.53;;;5.70;;
60354;SDS011;46198;51.464;-0.066;2023-06-22T01:36:29;8.00;;;5.45;;
60354;SDS011;46198;51.464;-0.066;2023-06-22T01:38:59;7.80;;;5.25;;
60354;SDS011;46198;51.464;-0.066;2023-06-22T01:41:28;10.10;;;6.45;;
60354;SDS011;46198;51.464;-0.066;2023-06-22T01:43:59;8.68;;;5.55;;
60354;SDS011;46198;51.464;-0.066;2023-06-22T01:48:56;7.82;;;5.22;;
60354;SDS011;46198;51.464;-0.066;2023-06-22T01:51:25;8.10;;;5.50;;
60354;SDS011;46198;51.464;-0.066;2023-06-22T01:53:53;9.25;;;5.60;;
60354;SDS011;46198;51.464;-0.066;2023-06-22T01:56:21;10.48;;;6.20;;
60354;SDS011;46198;51.464;-0.066;2023-06-22T01:58:50;10.27;;;6.50;;
60354;SDS011;46198;51.464;-0.066;2023-06-22T02:01:26;9.27;;;6.55;;
60354;SDS011;46198;51.464;-0.066;2023-06-22T02:04:02;9.68;;;6.80;;
60354;SDS011;46198;51.464;-0.066;2023-06-22T02:06:39;10.20;;;6.25;;
60354;SDS011;46198;51.464;-0.066;2023-06-22T02:09:12;11.55;;;7.80;;
60354;SDS011;46198;51.464;-0.066;2023-06-22T02:11:44;9.48;;;5.95;;
60354;SDS011;46198;51.464;-0.066;2023-06-22T02:14:14;8.05;;;5.70;;
60354;SDS011;46198;51.464;-0.066;2023-06-22T02:16:46;12.38;;;5.78;;
60354;SDS011;46198;51.464;-0.066;2023-06-22T02:19:15;8.98;;;5.68;;
60354;SDS011;46198;51.464;-0.066;2023-06-22T02:21:45;9.25;;;5.72;;
60354;SDS011;46198;51.464;-0.066;2023-06-22T02:24:13;11.45;;;5.82;;
60354;SDS011;46198;51.464;-0.066;2023-06-22T02:26:41;9.13;;;5.63;;
60354;SDS011;46198;51.464;-0.066;2023-06-22T02:31:42;8.45;;;5.28;;
60354;SDS011;46198;51.464;-0.066;2023-06-22T02:34:12;8.60;;;5.30;;
60354;SDS011;46198;51.464;-0.066;2023-06-22T02:36:45;8.00;;;5.75;;
60354;SDS011;46198;51.464;-0.066;2023-06-22T02:39:18;9.63;;;5.55;;
60354;SDS011;46198;51.464;-0.066;2023-06-22T02:41:48;9.32;;;5.93;;
60354;SDS011;46198;51.464;-0.066;2023-06-22T02:44:17;6.07;;;5.00;;
60354;SDS011;46198;51.464;-0.066;2023-06-22T02:46:47;10.48;;;5.75;;
60354;SDS011;46198;51.464;-0.066;2023-06-22T02:49:18;11.13;;;6.07;;
60354;SDS011;46198;51.464;-0.066;2023-06-22T02:51:47;11.82;;;5.85;;
60354;SDS011;46198;51.464;-0.066;2023-06-22T02:54:18;8.18;;;5.55;;
60354;SDS011;46198;51.464;-0.066;2023-06-22T02:56:50;7.72;;;5.60;;
60354;SDS011;46198;51.464;-0.066;2023-06-22T02:59:20;12.18;;;6.18;;
60354;SDS011;46198;51.464;-0.066;2023-06-22T03:01:54;8.95;;;5.97;;
60354;SDS011;46198;51.464;-0.066;2023-06-22T03:04:28;7.85;;;6.75;;
60354;SDS011;46198;51.464;-0.066;2023-06-22T03:06:58;10.30;;;6.55;;
60354;SDS011;46198;51.464;-0.066;2023-06-22T03:09:29;7.60;;;5.97;;
60354;SDS011;46198;51.464;-0.066;2023-06-22T03:11:57;14.30;;;6.38;;
60354;SDS011;46198;51.464;-0.066;2023-06-22T03:14:33;8.23;;;5.47;;
60354;SDS011;46198;51.464;-0.066;2023-06-22T03:17:04;9.63;;;5.72;;
60354;SDS011;46198;51.464;-0.066;2023-06-22T03:19:34;8.70;;;6.55;;
60354;SDS011;46198;51.464;-0.066;2023-06-22T03:22:02;10.88;;;6.65;;
60354;SDS011;46198;51.464;-0.066;2023-06-22T03:24:30;12.23;;;6.38;;
60354;SDS011;46198;51.464;-0.066;2023-06-22T03:27:00;9.35;;;6.05;;
60354;SDS011;46198;51.464;-0.066;2023-06-22T03:29:33;11.18;;;7.15;;
60354;SDS011;46198;51.464;-0.066;2023-06-22T03:32:01;10.02;;;5.90;;
60354;SDS011;46198;51.464;-0.066;2023-06-22T03:34:32;14.23;;;6.60;;
60354;SDS011;46198;51.464;-0.066;2023-06-22T03:37:03;14.10;;;7.35;;
60354;SDS011;46198;51.464;-0.066;2023-06-22T03:39:33;12.23;;;6.65;;
60354;SDS011;46198;51.464;-0.066;2023-06-22T03:42:02;13.07;;;6.45;;
60354;SDS011;46198;51.464;-0.066;2023-06-22T03:44:30;10.32;;;6.38;;
60354;SDS011;46198;51.464;-0.066;2023-06-22T03:46:59;14.98;;;6.43;;
60354;SDS011;46198;51.464;-0.066;2023-06-22T03:49:28;13.77;;;6.68;;
60354;SDS011;46198;51.464;-0.066;2023-06-22T03:51:59;12.88;;;6.40;;
60354;SDS011;46198;51.464;-0.066;2023-06-22T03:54:27;12.85;;;6.60;;
60354;SDS011;46198;51.464;-0.066;2023-06-22T03:56:56;9.52;;;5.90;;
60354;SDS011;46198;51.464;-0.066;2023-06-22T03:59:25;10.90;;;6.32;;
60354;SDS011;46198;51.464;-0.066;2023-06-22T04:01:53;11.23;;;6.57;;
60354;SDS011;46198;51.464;-0.066;2023-06-22T04:04:21;9.25;;;6.03;;
60354;SDS011;46198;51.464;-0.066;2023-06-22T04:06:50;10.63;;;6.50;;
60354;SDS011;46198;51.464;-0.066;2023-06-22T04:09:19;9.07;;;6.97;;
60354;SDS011;46198;51.464;-0.066;2023-06-22T04:11:48;12.27;;;7.10;;
60354;SDS011;46198;51.464;-0.066;2023-06-22T04:14:16;10.27;;;6.45;;
60354;SDS011;46198;51.464;-0.066;2023-06-22T04:16:44;9.63;;;6.70;;
60354;SDS011;46198;51.464;-0.066;2023-06-22T04:19:12;11.43;;;6.57;;
60354;SDS011;46198;51.464;-0.066;2023-06-22T04:21:43;10.13;;;6.32;;
60354;SDS011;46198;51.464;-0.066;2023-06-22T04:24:12;12.43;;;6.47;;
60354;SDS011;46198;51.464;-0.066;2023-06-22T04:26:41;9.90;;;6.43;;
60354;SDS011;46198;51.464;-0.066;2023-06-22T04:29:12;10.55;;;6.50;;
60354;SDS011;46198;51.464;-0.066;2023-06-22T04:31:40;12.25;;;6.63;;
60354;SDS011;46198;51.464;-0.066;2023-06-22T04:34:09;9.68;;;6.18;;
60354;SDS011;46198;51.464;-0.066;2023-06-22T04:36:37;11.38;;;7.35;;
60354;SDS011;46198;51.464;-0.066;2023-06-22T04:39:09;13.25;;;6.43;;
60354;SDS011;46198;51.464;-0.066;2023-06-22T04:41:39;10.70;;;7.45;;
60354;SDS011;46198;51.464;-0.066;2023-06-22T04:44:11;10.90;;;7.00;;
60354;SDS011;46198;51.464;-0.066;2023-06-22T04:46:40;13.07;;;7.07;;
60354;SDS011;46198;51.464;-0.066;2023-06-22T04:49:08;13.32;;;8.40;;
60354;SDS011;46198;51.464;-0.066;2023-06-22T04:51:38;15.18;;;7.60;;
60354;SDS011;46198;51.464;-0.066;2023-06-22T04:54:08;11.10;;;6.63;;
60354;SDS011;46198;51.464;-0.066;2023-06-22T04:56:36;10.55;;;6.60;;
60354;SDS011;46198;51.464;-0.066;2023-06-22T04:59:09;11.38;;;7.97;;
60354;SDS011;46198;51.464;-0.066;2023-06-22T05:01:41;11.82;;;6.53;;
60354;SDS011;46198;51.464;-0.066;2023-06-22T05:04:10;16.27;;;7.55;;
60354;SDS011;46198;51.464;-0.066;2023-06-22T05:06:38;9.32;;;7.00;;
60354;SDS011;46198;51.464;-0.066;2023-06-22T05:09:07;14.23;;;7.35;;
60354;SDS011;46198;51.464;-0.066;2023-06-22T05:11:35;11.18;;;6.90;;
60354;SDS011;46198;51.464;-0.066;2023-06-22T05:14:03;10.32;;;6.80;;
60354;SDS011;46198;51.464;-0.066;2023-06-22T05:16:33;12.45;;;7.13;;
60354;SDS011;46198;51.464;-0.066;2023-06-22T05:19:01;14.88;;;7.57;;
60354;SDS011;46198;51.464;-0.066;2023-06-22T05:21:30;9.82;;;7.03;;
60354;SDS011;46198;51.464;-0.066;2023-06-22T05:23:58;10.57;;;6.60;;
60354;SDS011;46198;51.464;-0.066;2023-06-22T05:26:29;13.88;;;7.65;;
60354;SDS011;46198;51.464;-0.066;2023-06-22T05:28:58;12.35;;;7.15;;
60354;SDS011;46198;51.464;-0.066;2023-06-22T05:31:27;11.38;;;6.97;;
60354;SDS011;46198;51.464;-0.066;2023-06-22T05:33:57;12.48;;;7.28;;
60354;SDS011;46198;51.464;-0.066;2023-06-22T05:36:26;11.07;;;7.07;;
60354;SDS011;46198;51.464;-0.066;2023-06-22T05:38:56;15.18;;;7.18;;
60354;SDS011;46198;51.464;-0.066;2023-06-22T05:41:24;9.75;;;6.38;;
60354;SDS011;46198;51.464;-0.066;2023-06-22T05:43:52;11.52;;;7.55;;
60354;SDS011;46198;51.464;-0.066;2023-06-22T05:46:20;10.80;;;6.70;;
60354;SDS011;46198;51.464;-0.066;2023-06-22T05:48:49;12.43;;;7.35;;
60354;SDS011;46198;51.464;-0.066;2023-06-22T05:51:18;12.05;;;6.57;;
60354;SDS011;46198;51.464;-0.066;2023-06-22T05:53:46;11.75;;;7.03;;
60354;SDS011;46198;51.464;-0.066;2023-06-22T05:56:16;13.03;;;6.97;;
60354;SDS011;46198;51.464;-0.066;2023-06-22T05:58:45;10.93;;;6.63;;
60354;SDS011;46198;51.464;-0.066;2023-06-22T06:01:14;10.70;;;6.90;;
60354;SDS011;46198;51.464;-0.066;2023-06-22T06:03:42;11.95;;;6.70;;
60354;SDS011;46198;51.464;-0.066;2023-06-22T06:06:10;13.38;;;7.13;;
60354;SDS011;46198;51.464;-0.066;2023-06-22T06:08:40;10.65;;;6.47;;
60354;SDS011;46198;51.464;-0.066;2023-06-22T06:11:08;12.82;;;7.25;;
60354;SDS011;46198;51.464;-0.066;2023-06-22T06:13:37;15.45;;;7.13;;
60354;SDS011;46198;51.464;-0.066;2023-06-22T06:16:05;15.02;;;7.43;;
60354;SDS011;46198;51.464;-0.066;2023-06-22T06:18:33;12.98;;;7.47;;
60354;SDS011;46198;51.464;-0.066;2023-06-22T06:21:01;10.70;;;6.20;;
60354;SDS011;46198;51.464;-0.066;2023-06-22T06:23:29;16.95;;;8.25;;
60354;SDS011;46198;51.464;-0.066;2023-06-22T06:25:58;12.68;;;7.60;;
60354;SDS011;46198;51.464;-0.066;2023-06-22T06:28:27;10.40;;;7.43;;
60354;SDS011;46198;51.464;-0.066;2023-06-22T06:30:55;10.40;;;7.13;;
60354;SDS011;46198;51.464;-0.066;2023-06-22T06:33:23;10.65;;;6.90;;
60354;SDS011;46198;51.464;-0.066;2023-06-22T06:35:52;11.15;;;7.28;;
60354;SDS011;46198;51.464;-0.066;2023-06-22T06:38:22;9.57;;;6.82;;
60354;SDS011;46198;51.464;-0.066;2023-06-22T06:40:50;11.75;;;7.63;;
60354;SDS011;46198;51.464;-0.066;2023-06-22T06:43:20;11.25;;;6.70;;
60354;SDS011;46198;51.464;-0.066;2023-06-22T06:45:48;11.55;;;7.55;;
60354;SDS011;46198;51.464;-0.066;2023-06-22T06:48:18;11.48;;;7.70;;
60354;SDS011;46198;51.464;-0.066;2023-06-22T06:50:46;12.02;;;7.60;;
60354;SDS011;46198;51.464;-0.066;2023-06-22T06:53:14;11.85;;;7.47;;
60354;SDS011;46198;51.464;-0.066;2023-06-22T06:55:42;11.85;;;7.20;;
60354;SDS011;46198;51.464;-0.066;2023-06-22T06:58:12;11.88;;;6.78;;
60354;SDS011;46198;51.464;-0.066;2023-06-22T07:00:42;11.32;;;7.50;;
60354;SDS011;46198;51.464;-0.066;2023-06-22T07:03:11;11.10;;;7.22;;
60354;SDS011;46198;51.464;-0.066;2023-06-22T07:05:39;9.82;;;6.55;;
60354;SDS011;46198;51.464;-0.066;2023-06-22T07:08:07;10.05;;;7.05;;
60354;SDS011;46198;51.464;-0.066;2023-06-22T07:10:36;11.77;;;7.43;;
60354;SDS011;46198;51.464;-0.066;2023-06-22T07:13:04;11.38;;;6.43;;
60354;SDS011;46198;51.464;-0.066;2023-06-22T07:15:32;12.60;;;7.50;;
60354;SDS011;46198;51.464;-0.066;2023-06-22T07:18:02;12.95;;;7.07;;
60354;SDS011;46198;51.464;-0.066;2023-06-22T07:20:30;13.55;;;7.32;;
60354;SDS011;46198;51.464;-0.066;2023-06-22T07:22:59;12.43;;;8.15;;
60354;SDS011;46198;51.464;-0.066;2023-06-22T07:25:27;11.25;;;6.93;;
60354;SDS011;46198;51.464;-0.066;2023-06-22T07:27:59;12.93;;;7.53;;
60354;SDS011;46198;51.464;-0.066;2023-06-22T07:30:29;12.65;;;8.15;;
60354;SDS011;46198;51.464;-0.066;2023-06-22T07:32:58;13.63;;;7.70;;
60354;SDS011;46198;51.464;-0.066;2023-06-22T07:35:32;13.80;;;8.13;;
60354;SDS011;46198;51.464;-0.066;2023-06-22T07:38:00;9.80;;;7.45;;
60354;SDS011;46198;51.464;-0.066;2023-06-22T07:40:31;15.70;;;8.23;;
60354;SDS011;46198;51.464;-0.066;2023-06-22T07:43:00;14.05;;;8.18;;
60354;SDS011;46198;51.464;-0.066;2023-06-22T07:45:28;14.25;;;8.10;;
60354;SDS011;46198;51.464;-0.066;2023-06-22T07:47:57;13.90;;;8.23;;
60354;SDS011;46198;51.464;-0.066;2023-06-22T07:50:25;14.00;;;8.18;;
60354;SDS011;46198;51.464;-0.066;2023-06-22T07:52:55;14.13;;;7.65;;
60354;SDS011;46198;51.464;-0.066;2023-06-22T07:55:23;19.42;;;9.38;;
60354;SDS011;46198;51.464;-0.066;2023-06-22T07:57:51;14.18;;;7.68;;
60354;SDS011;46198;51.464;-0.066;2023-06-22T08:00:20;12.88;;;7.68;;
60354;SDS011;46198;51.464;-0.066;2023-06-22T08:02:49;11.95;;;7.63;;
60354;SDS011;46198;51.464;-0.066;2023-06-22T08:05:18;14.00;;;7.63;;
60354;SDS011;46198;51.464;-0.066;2023-06-22T08:07:48;13.95;;;7.75;;
60354;SDS011;46198;51.464;-0.066;2023-06-22T08:10:18;15.18;;;8.85;;
60354;SDS011;46198;51.464;-0.066;2023-06-22T08:12:47;14.70;;;7.82;;
60354;SDS011;46198;51.464;-0.066;2023-06-22T08:15:15;13.40;;;8.38;;
60354;SDS011;46198;51.464;-0.066;2023-06-22T08:17:43;13.05;;;8.10;;
60354;SDS011;46198;51.464;-0.066;2023-06-22T08:20:12;13.38;;;8.70;;
60354;SDS011;46198;51.464;-0.066;2023-06-22T08:22:41;15.07;;;7.97;;
60354;SDS011;46198;51.464;-0.066;2023-06-22T08:25:09;11.32;;;7.80;;
60354;SDS011;46198;51.464;-0.066;2023-06-22T08:27:42;13.30;;;8.00;;
60354;SDS011;46198;51.464;-0.066;2023-06-22T08:30:13;12.20;;;8.05;;
60354;SDS011;46198;51.464;-0.066;2023-06-22T08:32:42;12.60;;;8.02;;
60354;SDS011;46198;51.464;-0.066;2023-06-22T08:35:10;12.20;;;7.65;;
60354;SDS011;46198;51.464;-0.066;2023-06-22T08:37:38;17.02;;;8.68;;
60354;SDS011;46198;51.464;-0.066;2023-06-22T08:40:08;15.40;;;7.88;;
60354;SDS011;46198;51.464;-0.066;2023-06-22T08:42:39;13.27;;;8.13;;
60354;SDS011;46198;51.464;-0.066;2023-06-22T08:45:10;16.30;;;9.07;;
60354;SDS011;46198;51.464;-0.066;2023-06-22T08:47:38;10.35;;;7.63;;
60354;SDS011;46198;51.464;-0.066;2023-06-22T08:50:08;12.38;;;8.05;;
60354;SDS011;46198;51.464;-0.066;2023-06-22T08:52:37;9.13;;;6.90;;
60354;SDS011;46198;51.464;-0.066;2023-06-22T08:55:08;10.18;;;7.80;;
60354;SDS011;46198;51.464;-0.066;2023-06-22T08:57:37;13.68;;;9.35;;
60354;SDS011;46198;51.464;-0.066;2023-06-22T09:00:08;12.65;;;8.93;;
60354;SDS011;46198;51.464;-0.066;2023-06-22T09:02:43;13.13;;;7.82;;
60354;SDS011;46198;51.464;-0.066;2023-06-22T09:05:12;14.02;;;7.82;;
60354;SDS011;46198;51.464;-0.066;2023-06-22T09:07:41;13.70;;;8.45;;
60354;SDS011;46198;51.464;-0.066;2023-06-22T09:10:10;12.80;;;7.43;;
60354;SDS011;46198;51.464;-0.066;2023-06-22T09:12:39;9.55;;;6.80;;
60354;SDS011;46198;51.464;-0.066;2023-06-22T09:15:09;11.13;;;7.30;;
60354;SDS011;46198;51.464;-0.066;2023-06-22T09:17:42;10.05;;;6.00;;
60354;SDS011;46198;51.464;-0.066;2023-06-22T09:20:10;11.50;;;7.30;;
60354;SDS011;46198;51.464;-0.066;2023-06-22T09:22:39;8.68;;;6.53;;
60354;SDS011;46198;51.464;-0.066;2023-06-22T09:25:07;9.20;;;6.60;;
60354;SDS011;46198;51.464;-0.066;2023-06-22T09:27:36;7.43;;;6.35;;
60354;SDS011;46198;51.464;-0.066;2023-06-22T09:30:04;10.70;;;7.53;;
60354;SDS011;46198;51.464;-0.066;2023-06-22T09:32:35;9.70;;;6.78;;
60354;SDS011;46198;51.464;-0.066;2023-06-22T09:35:04;10.03;;;6.50;;
60354;SDS011;46198;51.464;-0.066;2023-06-22T09:37:33;13.18;;;6.25;;
60354;SDS011;46198;51.464;-0.066;2023-06-22T09:40:01;7.55;;;5.32;;
60354;SDS011;46198;51.464;-0.066;2023-06-22T09:42:35;8.13;;;5.30;;
60354;SDS011;46198;51.464;-0.066;2023-06-22T09:45:03;6.03;;;4.40;;
60354;SDS011;46198;51.464;-0.066;2023-06-22T09:47:32;6.38;;;4.93;;
60354;SDS011;46198;51.464;-0.066;2023-06-22T09:50:02;10.15;;;5.70;;
60354;SDS011;46198;51.464;-0.066;2023-06-22T09:52:30;7.70;;;5.40;;
60354;SDS011;46198;51.464;-0.066;2023-06-22T09:55:01;5.90;;;4.65;;
60354;SDS011;46198;51.464;-0.066;2023-06-22T09:57:30;7.05;;;5.18;;
60354;SDS011;46198;51.464;-0.066;2023-06-22T09:59:58;7.35;;;5.22;;
60354;SDS011;46198;51.464;-0.066;2023-06-22T10:02:27;8.20;;;5.32;;
60354;SDS011;46198;51.464;-0.066;2023-06-22T10:04:56;9.02;;;5.35;;
60354;SDS011;46198;51.464;-0.066;2023-06-22T10:07:26;6.63;;;5.20;;
60354;SDS011;46198;51.464;-0.066;2023-06-22T10:09:54;7.93;;;5.22;;
60354;SDS011;46198;51.464;-0.066;2023-06-22T10:12:22;7.97;;;4.70;;
60354;SDS011;46198;51.464;-0.066;2023-06-22T10:14:50;7.95;;;4.97;;
60354;SDS011;46198;51.464;-0.066;2023-06-22T10:17:19;8.55;;;5.30;;
60354;SDS011;46198;51.464;-0.066;2023-06-22T10:19:47;8.95;;;5.10;;
60354;SDS011;46198;51.464;-0.066;2023-06-22T10:22:15;7.25;;;4.45;;
60354;SDS011;46198;51.464;-0.066;2023-06-22T10:24:44;7.45;;;4.60;;
60354;SDS011;46198;51.464;-0.066;2023-06-22T10:27:12;8.82;;;5.38;;
60354;SDS011;46198;51.464;-0.066;2023-06-22T10:29:44;5.70;;;4.53;;
60354;SDS011;46198;51.464;-0.066;2023-06-22T10:32:17;7.68;;;5.00;;
60354;SDS011;46198;51.464;-0.066;2023-06-22T10:34:45;8.98;;;5.25;;
60354;SDS011;46198;51.464;-0.066;2023-06-22T10:37:13;6.32;;;4.55;;
60354;SDS011;46198;51.464;-0.066;2023-06-22T10:39:42;6.85;;;4.22;;
60354;SDS011;46198;51.464;-0.066;2023-06-22T10:42:11;8.15;;;4.32;;
60354;SDS011;46198;51.464;-0.066;2023-06-22T10:44:40;7.10;;;4.40;;
60354;SDS011;46198;51.464;-0.066;2023-06-22T10:49:39;6.55;;;3.95;;
60354;SDS011;46198;51.464;-0.066;2023-06-22T10:52:07;6.63;;;4.28;;
60354;SDS011;46198;51.464;-0.066;2023-06-22T10:54:37;6.67;;;4.00;;
60354;SDS011;46198;51.464;-0.066;2023-06-22T10:57:06;6.40;;;4.50;;
60354;SDS011;46198;51.464;-0.066;2023-06-22T10:59:35;6.50;;;4.57;;
60354;SDS011;46198;51.464;-0.066;2023-06-22T11:02:04;6.38;;;4.72;;
60354;SDS011;46198;51.464;-0.066;2023-06-22T11:04:32;5.85;;;4.57;;
60354;SDS011;46198;51.464;-0.066;2023-06-22T11:07:00;6.38;;;4.60;;
60354;SDS011;46198;51.464;-0.066;2023-06-22T11:09:29;8.18;;;4.95;;
60354;SDS011;46198;51.464;-0.066;2023-06-22T11:11:57;7.13;;;4.55;;
60354;SDS011;46198;51.464;-0.066;2023-06-22T11:14:26;5.70;;;4.53;;
60354;SDS011;46198;51.464;-0.066;2023-06-22T11:16:56;8.75;;;5.95;;
60354;SDS011;46198;51.464;-0.066;2023-06-22T11:19:24;7.47;;;5.25;;
60354;SDS011;46198;51.464;-0.066;2023-06-22T11:21:52;7.22;;;4.45;;
60354;SDS011;46198;51.464;-0.066;2023-06-22T11:24:20;7.07;;;4.80;;
60354;SDS011;46198;51.464;-0.066;2023-06-22T11:26:48;4.88;;;4.32;;
60354;SDS011;46198;51.464;-0.066;2023-06-22T11:29:16;8.15;;;4.40;;
60354;SDS011;46198;51.464;-0.066;2023-06-22T11:32:03;5.78;;;4.03;;
60354;SDS011;46198;51.464;-0.066;2023-06-22T11:34:32;5.60;;;4.13;;
60354;SDS011;46198;51.464;-0.066;2023-06-22T11:37:00;4.45;;;3.78;;
60354;SDS011;46198;51.464;-0.066;2023-06-22T11:39:29;5.88;;;4.18;;
60354;SDS011;46198;51.464;-0.066;2023-06-22T11:42:08;4.93;;;3.75;;
60354;SDS011;46198;51.464;-0.066;2023-06-22T11:44:37;4.93;;;3.58;;
60354;SDS011;46198;51.464;-0.066;2023-06-22T11:47:07;6.72;;;3.72;;
60354;SDS011;46198;51.464;-0.066;2023-06-22T11:49:35;7.03;;;3.47;;
60354;SDS011;46198;51.464;-0.066;2023-06-22T11:52:03;5.00;;;3.05;;
60354;SDS011;46198;51.464;-0.066;2023-06-22T11:54:32;4.57;;;3.53;;
60354;SDS011;46198;51.464;-0.066;2023-06-22T11:57:00;3.53;;;3.13;;
60354;SDS011;46198;51.464;-0.066;2023-06-22T11:59:29;4.10;;;3.58;;
60354;SDS011;46198;51.464;-0.066;2023-06-22T12:01:57;5.40;;;3.67;;
60354;SDS011;46198;51.464;-0.066;2023-06-22T12:04:27;6.20;;;3.42;;
60354;SDS011;46198;51.464;-0.066;2023-06-22T12:06:55;6.28;;;3.33;;
60354;SDS011;46198;51.464;-0.066;2023-06-22T12:09:25;4.47;;;3.33;;
60354;SDS011;46198;51.464;-0.066;2023-06-22T12:11:53;5.53;;;3.78;;
60354;SDS011;46198;51.464;-0.066;2023-06-22T12:14:21;4.82;;;3.25;;
60354;SDS011;46198;51.464;-0.066;2023-06-22T12:16:49;3.20;;;2.90;;
60354;SDS011;46198;51.464;-0.066;2023-06-22T12:19:18;4.55;;;3.10;;
60354;SDS011;46198;51.464;-0.066;2023-06-22T12:21:47;5.18;;;3.72;;
60354;SDS011;46198;51.464;-0.066;2023-06-22T12:24:15;4.72;;;4.05;;
60354;SDS011;46198;51.464;-0.066;2023-06-22T12:26:43;5.63;;;3.63;;
60354;SDS011;46198;51.464;-0.066;2023-06-22T12:29:11;4.90;;;3.60;;
60354;SDS011;46198;51.464;-0.066;2023-06-22T12:31:39;5.38;;;3.60;;
60354;SDS011;46198;51.464;-0.066;2023-06-22T12:34:08;4.88;;;3.55;;
60354;SDS011;46198;51.464;-0.066;2023-06-22T12:36:36;4.35;;;3.88;;
60354;SDS011;46198;51.464;-0.066;2023-06-22T12:39:05;5.93;;;4.07;;
60354;SDS011;46198;51.464;-0.066;2023-06-22T12:41:33;5.22;;;3.95;;
60354;SDS011;46198;51.464;-0.066;2023-06-22T12:44:02;6.10;;;3.97;;
60354;SDS011;46198;51.464;-0.066;2023-06-22T12:46:30;4.47;;;3.47;;
60354;SDS011;46198;51.464;-0.066;2023-06-22T12:49:04;4.70;;;3.20;;
60354;SDS011;46198;51.464;-0.066;2023-06-22T12:51:32;4.03;;;3.17;;
60354;SDS011;46198;51.464;-0.066;2023-06-22T12:54:00;6.70;;;3.47;;
60354;SDS011;46198;51.464;-0.066;2023-06-22T12:56:30;3.47;;;2.97;;
60354;SDS011;46198;51.464;-0.066;2023-06-22T12:58:58;4.38;;;3.30;;
60354;SDS011;46198;51.464;-0.066;2023-06-22T13:01:28;4.85;;;3.50;;
60354;SDS011;46198;51.464;-0.066;2023-06-22T13:03:57;4.28;;;3.05;;
60354;SDS011;46198;51.464;-0.066;2023-06-22T13:06:25;4.15;;;3.55;;
60354;SDS011;46198;51.464;-0.066;2023-06-22T13:08:53;5.72;;;3.15;;
60354;SDS011;46198;51.464;-0.066;2023-06-22T13:11:43;4.32;;;3.60;;
60354;SDS011;46198;51.464;-0.066;2023-06-22T13:14:11;5.80;;;4.03;;
60354;SDS011;46198;51.464;-0.066;2023-06-22T13:16:39;4.22;;;3.33;;
60354;SDS011;46198;51.464;-0.066;2023-06-22T13:19:07;6.97;;;3.40;;
60354;SDS011;46198;51.464;-0.066;2023-06-22T13:21:36;3.27;;;3.00;;
60354;SDS011;46198;51.464;-0.066;2023-06-22T13:24:05;5.65;;;3.72;;
60354;SDS011;46198;51.464;-0.066;2023-06-22T13:26:34;4.35;;;3.30;;
60354;SDS011;46198;51.464;-0.066;2023-06-22T13:29:03;5.57;;;3.15;;
60354;SDS011;46198;51.464;-0.066;2023-06-22T13:31:32;4.32;;;3.17;;
60354;SDS011;46198;51.464;-0.066;2023-06-22T13:34:00;5.95;;;3.25;;
60354;SDS011;46198;51.464;-0.066;2023-06-22T13:36:28;6.47;;;3.50;;
60354;SDS011;46198;51.464;-0.066;2023-06-22T13:38:57;4.53;;;3.40;;
60354;SDS011;46198;51.464;-0.066;2023-06-22T13:41:25;3.22;;;2.90;;
60354;SDS011;46198;51.464;-0.066;2023-06-22T13:43:53;3.50;;;3.20;;
60354;SDS011;46198;51.464;-0.066;2023-06-22T13:46:25;3.72;;;3.15;;
60354;SDS011;46198;51.464;-0.066;2023-06-22T13:48:54;3.72;;;3.13;;
60354;SDS011;46198;51.464;-0.066;2023-06-22T13:51:22;4.93;;;3.50;;
60354;SDS011;46198;51.464;-0.066;2023-06-22T13:53:50;4.18;;;3.67;;
60354;SDS011;46198;51.464;-0.066;2023-06-22T13:56:18;5.68;;;3.33;;
60354;SDS011;46198;51.464;-0.066;2023-06-22T13:58:49;4.43;;;3.30;;
60354;SDS011;46198;51.464;-0.066;2023-06-22T14:01:17;5.07;;;3.45;;
60354;SDS011;46198;51.464;-0.066;2023-06-22T14:03:47;5.05;;;3.67;;
60354;SDS011;46198;51.464;-0.066;2023-06-22T14:06:16;3.83;;;3.50;;
60354;SDS011;46198;51.464;-0.066;2023-06-22T14:08:44;3.97;;;3.13;;
60354;SDS011;46198;51.464;-0.066;2023-06-22T14:11:12;4.00;;;3.35;;
60354;SDS011;46198;51.464;-0.066;2023-06-22T14:13:40;5.13;;;3.35;;
60354;SDS011;46198;51.464;-0.066;2023-06-22T14:16:09;4.30;;;3.50;;
60354;SDS011;46198;51.464;-0.066;2023-06-22T14:18:37;4.47;;;3.47;;
60354;SDS011;46198;51.464;-0.066;2023-06-22T14:21:07;4.18;;;3.28;;
60354;SDS011;46198;51.464;-0.066;2023-06-22T14:23:35;3.50;;;3.17;;
60354;SDS011;46198;51.464;-0.066;2023-06-22T14:26:04;5.70;;;3.10;;
60354;SDS011;46198;51.464;-0.066;2023-06-22T14:28:32;9.70;;;6.10;;
60354;SDS011;46198;51.464;-0.066;2023-06-22T14:31:00;3.88;;;3.47;;
60354;SDS011;46198;51.464;-0.066;2023-06-22T14:33:28;3.80;;;3.25;;
60354;SDS011;46198;51.464;-0.066;2023-06-22T14:35:56;4.68;;;3.75;;
60354;SDS011;46198;51.464;-0.066;2023-06-22T14:38:25;3.88;;;3.25;;
60354;SDS011;46198;51.464;-0.066;2023-06-22T14:40:54;4.50;;;3.72;;
60354;SDS011;46198;51.464;-0.066;2023-06-22T14:43:43;3.70;;;3.25;;
60354;SDS011;46198;51.464;-0.066;2023-06-22T14:46:11;5.93;;;4.25;;
60354;SDS011;46198;51.464;-0.066;2023-06-22T14:48:39;4.90;;;3.58;;